sensor_id;sensor_type;location;lat;lon;timestamp;temperature;humidity
2539;DHT22;1280;49.760;9.664;2023-06-04T00:01:22;17.30;53.90
2539;DHT22;1280;49.760;9.664;2023-06-04T00:03:50;17.20;54.00
2539;DHT22;1280;49.760;9.664;2023-06-04T00:06:18;17.20;54.10
2539;DHT22;1280;49.760;9.664;2023-06-04T00:08:46;17.10;54.40
2539;DHT22;1280;49.760;9.664;2023-06-04T00:11:14;17.00;54.50
2539;DHT22;1280;49.760;9.664;2023-06-04T00:13:44;17.00;54.70
2539;DHT22;1280;49.760;9.664;2023-06-04T00:16:12;17.00;54.90
2539;DHT22;1280;49.760;9.664;2023-06-04T00:18:40;16.90;55.00
2539;DHT22;1280;49.760;9.664;2023-06-04T00:21:08;16.90;55.10
2539;DHT22;1280;49.760;9.664;2023-06-04T00:23:36;16.90;55.20
2539;DHT22;1280;49.760;9.664;2023-06-04T00:26:04;16.80;55.30
2539;DHT22;1280;49.760;9.664;2023-06-04T00:28:32;16.80;55.40
2539;DHT22;1280;49.760;9.664;2023-06-04T00:31:04;16.70;55.40
2539;DHT22;1280;49.760;9.664;2023-06-04T00:33:32;16.70;55.50
2539;DHT22;1280;49.760;9.664;2023-06-04T00:36:02;16.60;55.60
2539;DHT22;1280;49.760;9.664;2023-06-04T00:38:30;16.60;55.70
2539;DHT22;1280;49.760;9.664;2023-06-04T00:40:58;16.60;55.70
2539;DHT22;1280;49.760;9.664;2023-06-04T00:43:26;16.60;55.80
2539;DHT22;1280;49.760;9.664;2023-06-04T00:45:54;16.50;55.80
2539;DHT22;1280;49.760;9.664;2023-06-04T00:48:25;16.50;56.00
2539;DHT22;1280;49.760;9.664;2023-06-04T00:50:54;16.40;56.10
2539;DHT22;1280;49.760;9.664;2023-06-04T00:53:23;16.30;56.10
2539;DHT22;1280;49.760;9.664;2023-06-04T00:55:52;16.30;56.30
2539;DHT22;1280;49.760;9.664;2023-06-04T00:58:20;16.20;56.40
2539;DHT22;1280;49.760;9.664;2023-06-04T01:00:48;16.10;56.50
2539;DHT22;1280;49.760;9.664;2023-06-04T01:03:19;16.10;56.60
2539;DHT22;1280;49.760;9.664;2023-06-04T01:05:57;16.00;56.70
2539;DHT22;1280;49.760;9.664;2023-06-04T01:08:28;16.00;56.80
2539;DHT22;1280;49.760;9.664;2023-06-04T01:10:57;15.90;56.80
2539;DHT22;1280;49.760;9.664;2023-06-04T01:13:26;15.80;56.80
2539;DHT22;1280;49.760;9.664;2023-06-04T01:15:55;15.80;57.00
2539;DHT22;1280;49.760;9.664;2023-06-04T01:18:26;15.70;57.00
2539;DHT22;1280;49.760;9.664;2023-06-04T01:20:59;15.70;57.10
2539;DHT22;1280;49.760;9.664;2023-06-04T01:23:36;15.60;57.20
2539;DHT22;1280;49.760;9.664;2023-06-04T01:26:08;15.60;57.30
2539;DHT22;1280;49.760;9.664;2023-06-04T01:28:37;15.60;57.30
2539;DHT22;1280;49.760;9.664;2023-06-04T01:31:06;15.60;57.40
2539;DHT22;1280;49.760;9.664;2023-06-04T01:33:36;15.50;57.50
2539;DHT22;1280;49.760;9.664;2023-06-04T01:36:05;15.50;57.50
2539;DHT22;1280;49.760;9.664;2023-06-04T01:38:37;15.40;57.70
2539;DHT22;1280;49.760;9.664;2023-06-04T01:41:05;15.40;57.70
2539;DHT22;1280;49.760;9.664;2023-06-04T01:43:33;15.40;57.80
2539;DHT22;1280;49.760;9.664;2023-06-04T01:46:02;15.40;57.80
2539;DHT22;1280;49.760;9.664;2023-06-04T01:48:31;15.30;57.90
2539;DHT22;1280;49.760;9.664;2023-06-04T01:50:59;15.30;58.00
2539;DHT22;1280;49.760;9.664;2023-06-04T01:53:30;15.30;58.00
2539;DHT22;1280;49.760;9.664;2023-06-04T01:55:58;15.30;58.10
2539;DHT22;1280;49.760;9.664;2023-06-04T01:58:28;15.30;58.20
2539;DHT22;1280;49.760;9.664;2023-06-04T02:00:56;15.20;58.20
2539;DHT22;1280;49.760;9.664;2023-06-04T02:03:26;15.20;58.30
2539;DHT22;1280;49.760;9.664;2023-06-04T02:05:55;15.20;58.30
2539;DHT22;1280;49.760;9.664;2023-06-04T02:08:23;15.20;58.30
2539;DHT22;1280;49.760;9.664;2023-06-04T02:10:53;15.10;58.50
2539;DHT22;1280;49.760;9.664;2023-06-04T02:13:21;15.00;58.60
2539;DHT22;1280;49.760;9.664;2023-06-04T02:15:49;15.00;58.70
2539;DHT22;1280;49.760;9.664;2023-06-04T02:18:19;14.90;58.70
2539;DHT22;1280;49.760;9.664;2023-06-04T02:20:50;14.80;58.80
2539;DHT22;1280;49.760;9.664;2023-06-04T02:23:19;14.80;58.90
2539;DHT22;1280;49.760;9.664;2023-06-04T02:25:47;14.70;59.00
2539;DHT22;1280;49.760;9.664;2023-06-04T02:28:18;14.70;59.00
2539;DHT22;1280;49.760;9.664;2023-06-04T02:30:46;14.70;59.20
2539;DHT22;1280;49.760;9.664;2023-06-04T02:33:14;14.60;59.10
2539;DHT22;1280;49.760;9.664;2023-06-04T02:35:43;14.60;59.20
2539;DHT22;1280;49.760;9.664;2023-06-04T02:38:11;14.60;59.30
2539;DHT22;1280;49.760;9.664;2023-06-04T02:40:39;14.50;59.30
2539;DHT22;1280;49.760;9.664;2023-06-04T02:43:07;14.50;59.40
2539;DHT22;1280;49.760;9.664;2023-06-04T02:45:37;14.40;59.30
2539;DHT22;1280;49.760;9.664;2023-06-04T02:48:05;14.30;59.60
2539;DHT22;1280;49.760;9.664;2023-06-04T02:50:33;14.20;59.60
2539;DHT22;1280;49.760;9.664;2023-06-04T02:53:01;14.20;59.70
2539;DHT22;1280;49.760;9.664;2023-06-04T02:55:29;14.10;59.80
2539;DHT22;1280;49.760;9.664;2023-06-04T02:57:57;14.10;59.90
2539;DHT22;1280;49.760;9.664;2023-06-04T03:00:25;14.10;60.00
2539;DHT22;1280;49.760;9.664;2023-06-04T03:02:55;14.10;60.10
2539;DHT22;1280;49.760;9.664;2023-06-04T03:05:28;14.10;60.20
2539;DHT22;1280;49.760;9.664;2023-06-04T03:07:57;14.20;60.20
2539;DHT22;1280;49.760;9.664;2023-06-04T03:10:26;14.10;60.10
2539;DHT22;1280;49.760;9.664;2023-06-04T03:12:54;14.10;60.10
2539;DHT22;1280;49.760;9.664;2023-06-04T03:15:22;14.00;60.20
2539;DHT22;1280;49.760;9.664;2023-06-04T03:17:50;14.00;60.10
2539;DHT22;1280;49.760;9.664;2023-06-04T03:20:21;13.90;60.20
2539;DHT22;1280;49.760;9.664;2023-06-04T03:22:51;13.80;60.30
2539;DHT22;1280;49.760;9.664;2023-06-04T03:25:19;13.80;60.50
2539;DHT22;1280;49.760;9.664;2023-06-04T03:27:47;13.80;60.50
2539;DHT22;1280;49.760;9.664;2023-06-04T03:30:16;13.80;60.60
2539;DHT22;1280;49.760;9.664;2023-06-04T03:33:13;13.80;60.60
2539;DHT22;1280;49.760;9.664;2023-06-04T03:35:42;13.80;60.60
2539;DHT22;1280;49.760;9.664;2023-06-04T03:38:10;13.70;60.70
2539;DHT22;1280;49.760;9.664;2023-06-04T03:40:39;13.70;60.70
2539;DHT22;1280;49.760;9.664;2023-06-04T03:43:09;13.60;60.80
2539;DHT22;1280;49.760;9.664;2023-06-04T03:45:37;13.60;60.90
2539;DHT22;1280;49.760;9.664;2023-06-04T03:48:06;13.70;61.00
2539;DHT22;1280;49.760;9.664;2023-06-04T03:50:35;13.70;61.00
2539;DHT22;1280;49.760;9.664;2023-06-04T03:53:05;13.70;61.10
2539;DHT22;1280;49.760;9.664;2023-06-04T03:55:33;13.80;61.00
2539;DHT22;1280;49.760;9.664;2023-06-04T03:58:03;13.80;61.00
2539;DHT22;1280;49.760;9.664;2023-06-04T04:00:31;13.80;61.00
2539;DHT22;1280;49.760;9.664;2023-06-04T04:03:01;13.90;61.10
2539;DHT22;1280;49.760;9.664;2023-06-04T04:05:31;13.90;61.10
2539;DHT22;1280;49.760;9.664;2023-06-04T04:07:59;14.00;61.20
2539;DHT22;1280;49.760;9.664;2023-06-04T04:10:31;14.10;61.10
2539;DHT22;1280;49.760;9.664;2023-06-04T04:12:59;14.10;61.10
2539;DHT22;1280;49.760;9.664;2023-06-04T04:15:30;14.20;61.10
2539;DHT22;1280;49.760;9.664;2023-06-04T04:18:00;14.20;61.10
2539;DHT22;1280;49.760;9.664;2023-06-04T04:20:29;14.20;61.00
2539;DHT22;1280;49.760;9.664;2023-06-04T04:23:02;14.30;61.00
2539;DHT22;1280;49.760;9.664;2023-06-04T04:25:32;14.30;61.10
2539;DHT22;1280;49.760;9.664;2023-06-04T04:28:03;14.40;61.20
2539;DHT22;1280;49.760;9.664;2023-06-04T04:30:34;14.50;61.00
2539;DHT22;1280;49.760;9.664;2023-06-04T04:33:04;14.60;60.90
2539;DHT22;1280;49.760;9.664;2023-06-04T04:35:37;14.70;61.00
2539;DHT22;1280;49.760;9.664;2023-06-04T04:38:07;14.80;61.10
2539;DHT22;1280;49.760;9.664;2023-06-04T04:40:45;15.00;61.10
2539;DHT22;1280;49.760;9.664;2023-06-04T04:43:15;15.20;61.00
2539;DHT22;1280;49.760;9.664;2023-06-04T04:45:43;15.30;61.00
2539;DHT22;1280;49.760;9.664;2023-06-04T04:48:11;15.50;60.90
2539;DHT22;1280;49.760;9.664;2023-06-04T04:50:39;15.60;60.90
2539;DHT22;1280;49.760;9.664;2023-06-04T04:53:07;15.80;60.90
2539;DHT22;1280;49.760;9.664;2023-06-04T04:55:37;15.90;60.90
2539;DHT22;1280;49.760;9.664;2023-06-04T04:58:13;16.10;60.70
2539;DHT22;1280;49.760;9.664;2023-06-04T05:00:41;16.30;60.60
2539;DHT22;1280;49.760;9.664;2023-06-04T05:03:10;16.40;60.60
2539;DHT22;1280;49.760;9.664;2023-06-04T05:05:38;16.60;60.50
2539;DHT22;1280;49.760;9.664;2023-06-04T05:08:07;16.80;60.30
2539;DHT22;1280;49.760;9.664;2023-06-04T05:10:39;16.90;60.30
2539;DHT22;1280;49.760;9.664;2023-06-04T05:13:09;17.10;60.10
2539;DHT22;1280;49.760;9.664;2023-06-04T05:15:46;17.20;59.90
2539;DHT22;1280;49.760;9.664;2023-06-04T05:18:17;17.40;59.70
2539;DHT22;1280;49.760;9.664;2023-06-04T05:20:48;17.60;59.80
2539;DHT22;1280;49.760;9.664;2023-06-04T05:23:16;17.70;60.10
2539;DHT22;1280;49.760;9.664;2023-06-04T05:25:47;17.90;60.30
2539;DHT22;1280;49.760;9.664;2023-06-04T05:28:18;18.10;60.60
2539;DHT22;1280;49.760;9.664;2023-06-04T05:30:48;18.30;60.80
2539;DHT22;1280;49.760;9.664;2023-06-04T05:33:17;18.60;61.10
2539;DHT22;1280;49.760;9.664;2023-06-04T05:35:53;19.10;60.80
2539;DHT22;1280;49.760;9.664;2023-06-04T05:38:26;20.00;59.20
2539;DHT22;1280;49.760;9.664;2023-06-04T05:41:01;21.10;57.30
2539;DHT22;1280;49.760;9.664;2023-06-04T05:43:33;22.10;55.50
2539;DHT22;1280;49.760;9.664;2023-06-04T05:46:03;22.90;53.50
2539;DHT22;1280;49.760;9.664;2023-06-04T05:48:32;23.50;52.60
2539;DHT22;1280;49.760;9.664;2023-06-04T05:51:01;24.00;51.50
2539;DHT22;1280;49.760;9.664;2023-06-04T05:53:29;24.40;50.20
2539;DHT22;1280;49.760;9.664;2023-06-04T05:55:57;24.50;49.60
2539;DHT22;1280;49.760;9.664;2023-06-04T05:58:24;24.60;48.60
2539;DHT22;1280;49.760;9.664;2023-06-04T06:00:53;24.60;48.20
2539;DHT22;1280;49.760;9.664;2023-06-04T06:03:22;24.80;47.50
2539;DHT22;1280;49.760;9.664;2023-06-04T06:05:50;25.10;47.00
2539;DHT22;1280;49.760;9.664;2023-06-04T06:10:47;25.40;46.00
2539;DHT22;1280;49.760;9.664;2023-06-04T06:13:15;25.10;45.70
2539;DHT22;1280;49.760;9.664;2023-06-04T06:15:45;24.50;45.90
2539;DHT22;1280;49.760;9.664;2023-06-04T06:18:15;24.00;46.00
2539;DHT22;1280;49.760;9.664;2023-06-04T06:20:44;23.30;46.30
2539;DHT22;1280;49.760;9.664;2023-06-04T06:23:12;22.60;46.70
2539;DHT22;1280;49.760;9.664;2023-06-04T06:25:43;22.20;47.10
2539;DHT22;1280;49.760;9.664;2023-06-04T06:28:20;21.70;47.20
2539;DHT22;1280;49.760;9.664;2023-06-04T06:30:49;21.10;47.60
2539;DHT22;1280;49.760;9.664;2023-06-04T06:33:17;20.60;48.10
2539;DHT22;1280;49.760;9.664;2023-06-04T06:35:49;20.20;48.50
2539;DHT22;1280;49.760;9.664;2023-06-04T06:38:17;19.70;49.00
2539;DHT22;1280;49.760;9.664;2023-06-04T06:40:45;19.50;49.40
2539;DHT22;1280;49.760;9.664;2023-06-04T06:43:14;19.30;49.70
2539;DHT22;1280;49.760;9.664;2023-06-04T06:45:42;19.20;49.90
2539;DHT22;1280;49.760;9.664;2023-06-04T06:48:10;19.20;50.00
2539;DHT22;1280;49.760;9.664;2023-06-04T06:50:38;19.10;50.20
2539;DHT22;1280;49.760;9.664;2023-06-04T06:53:07;19.10;50.50
2539;DHT22;1280;49.760;9.664;2023-06-04T06:55:35;19.00;50.70
2539;DHT22;1280;49.760;9.664;2023-06-04T06:58:03;18.90;51.00
2539;DHT22;1280;49.760;9.664;2023-06-04T07:00:31;18.90;51.20
2539;DHT22;1280;49.760;9.664;2023-06-04T07:02:59;19.00;51.30
2539;DHT22;1280;49.760;9.664;2023-06-04T07:05:30;18.90;51.30
2539;DHT22;1280;49.760;9.664;2023-06-04T07:07:58;18.90;51.20
2539;DHT22;1280;49.760;9.664;2023-06-04T07:10:29;18.90;51.10
2539;DHT22;1280;49.760;9.664;2023-06-04T07:12:57;19.00;51.20
2539;DHT22;1280;49.760;9.664;2023-06-04T07:15:25;19.10;51.20
2539;DHT22;1280;49.760;9.664;2023-06-04T07:17:53;19.10;51.20
2539;DHT22;1280;49.760;9.664;2023-06-04T07:20:21;19.20;51.10
2539;DHT22;1280;49.760;9.664;2023-06-04T07:22:49;19.30;51.00
2539;DHT22;1280;49.760;9.664;2023-06-04T07:25:17;19.30;51.00
2539;DHT22;1280;49.760;9.664;2023-06-04T07:27:48;19.40;51.00
2539;DHT22;1280;49.760;9.664;2023-06-04T07:30:17;19.50;51.20
2539;DHT22;1280;49.760;9.664;2023-06-04T07:32:46;19.50;51.00
2539;DHT22;1280;49.760;9.664;2023-06-04T07:35:15;19.60;50.90
2539;DHT22;1280;49.760;9.664;2023-06-04T07:37:43;19.60;50.90
2539;DHT22;1280;49.760;9.664;2023-06-04T07:40:14;19.60;50.70
2539;DHT22;1280;49.760;9.664;2023-06-04T07:42:43;19.70;50.60
2539;DHT22;1280;49.760;9.664;2023-06-04T07:45:12;19.70;50.70
2539;DHT22;1280;49.760;9.664;2023-06-04T07:47:40;19.70;50.60
2539;DHT22;1280;49.760;9.664;2023-06-04T07:50:08;19.70;50.70
2539;DHT22;1280;49.760;9.664;2023-06-04T07:52:36;19.70;50.60
2539;DHT22;1280;49.760;9.664;2023-06-04T07:55:05;19.70;50.60
2539;DHT22;1280;49.760;9.664;2023-06-04T07:57:35;19.80;50.50
2539;DHT22;1280;49.760;9.664;2023-06-04T08:00:03;19.80;50.50
2539;DHT22;1280;49.760;9.664;2023-06-04T08:02:38;19.90;50.50
2539;DHT22;1280;49.760;9.664;2023-06-04T08:05:07;19.90;50.50
2539;DHT22;1280;49.760;9.664;2023-06-04T08:07:35;20.00;50.60
2539;DHT22;1280;49.760;9.664;2023-06-04T08:10:05;20.00;50.60
2539;DHT22;1280;49.760;9.664;2023-06-04T08:12:33;20.00;50.50
2539;DHT22;1280;49.760;9.664;2023-06-04T08:15:01;20.10;50.60
2539;DHT22;1280;49.760;9.664;2023-06-04T08:17:29;20.10;50.50
2539;DHT22;1280;49.760;9.664;2023-06-04T08:19:58;20.10;50.50
2539;DHT22;1280;49.760;9.664;2023-06-04T08:22:26;20.20;50.50
2539;DHT22;1280;49.760;9.664;2023-06-04T08:24:55;20.20;50.50
2539;DHT22;1280;49.760;9.664;2023-06-04T08:27:23;20.20;50.50
2539;DHT22;1280;49.760;9.664;2023-06-04T08:29:51;20.20;50.60
2539;DHT22;1280;49.760;9.664;2023-06-04T08:32:19;20.20;50.40
2539;DHT22;1280;49.760;9.664;2023-06-04T08:34:47;20.20;50.60
2539;DHT22;1280;49.760;9.664;2023-06-04T08:37:18;20.30;50.60
2539;DHT22;1280;49.760;9.664;2023-06-04T08:39:46;20.20;50.70
2539;DHT22;1280;49.760;9.664;2023-06-04T08:42:18;20.20;50.70
2539;DHT22;1280;49.760;9.664;2023-06-04T08:44:50;20.30;50.60
2539;DHT22;1280;49.760;9.664;2023-06-04T08:47:19;20.40;50.40
2539;DHT22;1280;49.760;9.664;2023-06-04T08:49:50;20.40;50.50
2539;DHT22;1280;49.760;9.664;2023-06-04T08:52:19;20.40;50.40
2539;DHT22;1280;49.760;9.664;2023-06-04T08:54:49;20.50;50.40
2539;DHT22;1280;49.760;9.664;2023-06-04T08:57:18;20.60;50.40
2539;DHT22;1280;49.760;9.664;2023-06-04T08:59:47;20.60;50.40
2539;DHT22;1280;49.760;9.664;2023-06-04T09:02:15;20.70;50.30
2539;DHT22;1280;49.760;9.664;2023-06-04T09:04:44;20.80;50.20
2539;DHT22;1280;49.760;9.664;2023-06-04T09:07:13;20.90;50.20
2539;DHT22;1280;49.760;9.664;2023-06-04T09:09:46;21.00;49.90
2539;DHT22;1280;49.760;9.664;2023-06-04T09:12:27;21.10;49.70
2539;DHT22;1280;49.760;9.664;2023-06-04T09:14:59;21.10;49.70
2539;DHT22;1280;49.760;9.664;2023-06-04T09:17:27;21.20;49.30
2539;DHT22;1280;49.760;9.664;2023-06-04T09:19:56;21.30;49.00
2539;DHT22;1280;49.760;9.664;2023-06-04T09:22:32;21.30;48.70
2539;DHT22;1280;49.760;9.664;2023-06-04T09:25:03;21.30;48.60
2539;DHT22;1280;49.760;9.664;2023-06-04T09:27:37;21.30;48.60
2539;DHT22;1280;49.760;9.664;2023-06-04T09:30:07;21.40;48.60
2539;DHT22;1280;49.760;9.664;2023-06-04T09:32:36;21.40;48.40
2539;DHT22;1280;49.760;9.664;2023-06-04T09:35:12;21.40;48.10
2539;DHT22;1280;49.760;9.664;2023-06-04T09:37:41;21.50;47.90
2539;DHT22;1280;49.760;9.664;2023-06-04T09:40:11;21.60;48.00
2539;DHT22;1280;49.760;9.664;2023-06-04T09:42:43;21.70;47.80
2539;DHT22;1280;49.760;9.664;2023-06-04T09:45:11;21.70;47.60
2539;DHT22;1280;49.760;9.664;2023-06-04T09:47:41;21.80;47.70
2539;DHT22;1280;49.760;9.664;2023-06-04T09:50:10;21.80;47.60
2539;DHT22;1280;49.760;9.664;2023-06-04T09:52:39;21.90;47.50
2539;DHT22;1280;49.760;9.664;2023-06-04T09:55:18;21.90;47.50
2539;DHT22;1280;49.760;9.664;2023-06-04T09:57:47;21.90;47.40
2539;DHT22;1280;49.760;9.664;2023-06-04T10:00:17;21.90;47.40
2539;DHT22;1280;49.760;9.664;2023-06-04T10:02:46;21.90;47.00
2539;DHT22;1280;49.760;9.664;2023-06-04T10:05:16;21.90;46.40
2539;DHT22;1280;49.760;9.664;2023-06-04T10:07:46;22.00;46.20
2539;DHT22;1280;49.760;9.664;2023-06-04T10:10:16;22.00;46.20
2539;DHT22;1280;49.760;9.664;2023-06-04T10:12:47;22.10;46.20
2539;DHT22;1280;49.760;9.664;2023-06-04T10:15:17;22.10;45.80
2539;DHT22;1280;49.760;9.664;2023-06-04T10:17:47;22.10;45.70
2539;DHT22;1280;49.760;9.664;2023-06-04T10:20:17;22.20;45.80
2539;DHT22;1280;49.760;9.664;2023-06-04T10:22:48;22.20;46.00
2539;DHT22;1280;49.760;9.664;2023-06-04T10:25:16;22.30;46.00
2539;DHT22;1280;49.760;9.664;2023-06-04T10:27:47;22.30;45.70
2539;DHT22;1280;49.760;9.664;2023-06-04T10:30:15;22.40;45.60
2539;DHT22;1280;49.760;9.664;2023-06-04T10:32:43;22.30;45.70
2539;DHT22;1280;49.760;9.664;2023-06-04T10:35:12;22.40;45.40
2539;DHT22;1280;49.760;9.664;2023-06-04T10:37:41;22.40;45.40
2539;DHT22;1280;49.760;9.664;2023-06-04T10:40:10;22.40;45.10
2539;DHT22;1280;49.760;9.664;2023-06-04T10:42:41;22.50;45.00
2539;DHT22;1280;49.760;9.664;2023-06-04T10:45:11;22.50;45.00
2539;DHT22;1280;49.760;9.664;2023-06-04T10:47:39;22.50;45.10
2539;DHT22;1280;49.760;9.664;2023-06-04T10:50:09;22.50;45.20
2539;DHT22;1280;49.760;9.664;2023-06-04T10:52:49;22.50;45.00
2539;DHT22;1280;49.760;9.664;2023-06-04T10:55:17;22.60;44.90
2539;DHT22;1280;49.760;9.664;2023-06-04T10:57:51;22.60;44.90
2539;DHT22;1280;49.760;9.664;2023-06-04T11:00:22;22.60;44.90
2539;DHT22;1280;49.760;9.664;2023-06-04T11:02:54;22.60;44.90
2539;DHT22;1280;49.760;9.664;2023-06-04T11:05:33;22.70;44.60
2539;DHT22;1280;49.760;9.664;2023-06-04T11:08:02;22.70;44.50
2539;DHT22;1280;49.760;9.664;2023-06-04T11:10:32;22.80;44.30
2539;DHT22;1280;49.760;9.664;2023-06-04T11:13:01;22.80;44.00
2539;DHT22;1280;49.760;9.664;2023-06-04T11:15:39;22.80;43.70
2539;DHT22;1280;49.760;9.664;2023-06-04T11:18:13;22.80;43.70
2539;DHT22;1280;49.760;9.664;2023-06-04T11:20:42;22.90;43.60
2539;DHT22;1280;49.760;9.664;2023-06-04T11:23:11;22.90;43.50
2539;DHT22;1280;49.760;9.664;2023-06-04T11:25:40;23.00;43.50
2539;DHT22;1280;49.760;9.664;2023-06-04T11:28:15;23.10;43.20
2539;DHT22;1280;49.760;9.664;2023-06-04T11:30:55;23.20;43.00
2539;DHT22;1280;49.760;9.664;2023-06-04T11:33:23;23.10;43.20
2539;DHT22;1280;49.760;9.664;2023-06-04T11:35:51;23.10;43.00
2539;DHT22;1280;49.760;9.664;2023-06-04T11:38:19;23.10;42.90
2539;DHT22;1280;49.760;9.664;2023-06-04T11:40:55;23.20;42.60
2539;DHT22;1280;49.760;9.664;2023-06-04T11:43:23;23.20;42.60
2539;DHT22;1280;49.760;9.664;2023-06-04T11:45:53;23.20;42.50
2539;DHT22;1280;49.760;9.664;2023-06-04T11:48:21;23.20;42.30
2539;DHT22;1280;49.760;9.664;2023-06-04T11:50:49;23.20;42.20
2539;DHT22;1280;49.760;9.664;2023-06-04T11:53:17;23.30;42.00
2539;DHT22;1280;49.760;9.664;2023-06-04T11:55:45;23.30;41.80
2539;DHT22;1280;49.760;9.664;2023-06-04T11:58:13;23.30;41.80
2539;DHT22;1280;49.760;9.664;2023-06-04T12:00:42;23.30;41.90
2539;DHT22;1280;49.760;9.664;2023-06-04T12:03:11;23.40;41.90
2539;DHT22;1280;49.760;9.664;2023-06-04T12:05:40;23.40;41.70
2539;DHT22;1280;49.760;9.664;2023-06-04T12:08:09;23.50;41.70
2539;DHT22;1280;49.760;9.664;2023-06-04T12:10:38;23.40;41.60
2539;DHT22;1280;49.760;9.664;2023-06-04T12:13:06;23.50;41.50
2539;DHT22;1280;49.760;9.664;2023-06-04T12:15:34;23.50;41.50
2539;DHT22;1280;49.760;9.664;2023-06-04T12:18:03;23.50;41.40
2539;DHT22;1280;49.760;9.664;2023-06-04T12:20:34;23.50;41.50
2539;DHT22;1280;49.760;9.664;2023-06-04T12:23:03;23.60;41.40
2539;DHT22;1280;49.760;9.664;2023-06-04T12:25:33;23.60;41.40
2539;DHT22;1280;49.760;9.664;2023-06-04T12:28:01;23.60;41.40
2539;DHT22;1280;49.760;9.664;2023-06-04T12:30:38;23.50;41.20
2539;DHT22;1280;49.760;9.664;2023-06-04T12:33:07;23.50;41.10
2539;DHT22;1280;49.760;9.664;2023-06-04T12:35:36;23.50;41.20
2539;DHT22;1280;49.760;9.664;2023-06-04T12:38:05;23.50;41.20
2539;DHT22;1280;49.760;9.664;2023-06-04T12:40:36;23.60;41.20
2539;DHT22;1280;49.760;9.664;2023-06-04T12:43:05;23.60;41.20
2539;DHT22;1280;49.760;9.664;2023-06-04T12:45:33;23.60;41.10
2539;DHT22;1280;49.760;9.664;2023-06-04T12:48:01;23.50;41.20
2539;DHT22;1280;49.760;9.664;2023-06-04T12:50:29;23.60;41.10
2539;DHT22;1280;49.760;9.664;2023-06-04T12:52:58;23.70;40.90
2539;DHT22;1280;49.760;9.664;2023-06-04T12:55:26;23.70;40.70
2539;DHT22;1280;49.760;9.664;2023-06-04T12:57:54;23.80;40.50
2539;DHT22;1280;49.760;9.664;2023-06-04T13:00:22;23.80;40.50
2539;DHT22;1280;49.760;9.664;2023-06-04T13:02:50;23.80;40.40
2539;DHT22;1280;49.760;9.664;2023-06-04T13:05:18;23.80;40.50
2539;DHT22;1280;49.760;9.664;2023-06-04T13:07:47;23.90;40.70
2539;DHT22;1280;49.760;9.664;2023-06-04T13:10:16;23.90;40.40
2539;DHT22;1280;49.760;9.664;2023-06-04T13:12:44;23.90;40.20
2539;DHT22;1280;49.760;9.664;2023-06-04T13:15:12;23.90;40.10
2539;DHT22;1280;49.760;9.664;2023-06-04T13:17:39;24.00;40.00
2539;DHT22;1280;49.760;9.664;2023-06-04T13:20:09;24.00;40.10
2539;DHT22;1280;49.760;9.664;2023-06-04T13:22:37;24.10;40.30
2539;DHT22;1280;49.760;9.664;2023-06-04T13:25:05;24.10;40.60
2539;DHT22;1280;49.760;9.664;2023-06-04T13:31:55;24.10;40.10
2539;DHT22;1280;49.760;9.664;2023-06-04T13:34:23;23.90;39.90
2539;DHT22;1280;49.760;9.664;2023-06-04T13:36:54;23.90;40.00
2539;DHT22;1280;49.760;9.664;2023-06-04T13:39:22;24.00;39.90
2539;DHT22;1280;49.760;9.664;2023-06-04T13:41:50;24.00;40.00
2539;DHT22;1280;49.760;9.664;2023-06-04T13:44:20;24.00;40.10
2539;DHT22;1280;49.760;9.664;2023-06-04T13:46:52;24.00;39.70
2539;DHT22;1280;49.760;9.664;2023-06-04T13:49:22;24.10;39.70
2539;DHT22;1280;49.760;9.664;2023-06-04T13:51:50;24.20;39.70
2539;DHT22;1280;49.760;9.664;2023-06-04T13:54:18;24.20;39.70
2539;DHT22;1280;49.760;9.664;2023-06-04T13:56:46;24.30;39.60
2539;DHT22;1280;49.760;9.664;2023-06-04T13:59:14;24.30;39.30
2539;DHT22;1280;49.760;9.664;2023-06-04T14:01:42;24.40;39.10
2539;DHT22;1280;49.760;9.664;2023-06-04T14:04:10;24.40;38.70
2539;DHT22;1280;49.760;9.664;2023-06-04T14:06:39;24.40;38.70
2539;DHT22;1280;49.760;9.664;2023-06-04T14:09:07;24.50;38.60
2539;DHT22;1280;49.760;9.664;2023-06-04T14:11:38;24.50;38.60
2539;DHT22;1280;49.760;9.664;2023-06-04T14:14:06;24.50;38.50
2539;DHT22;1280;49.760;9.664;2023-06-04T14:16:34;24.50;38.70
2539;DHT22;1280;49.760;9.664;2023-06-04T14:19:02;24.50;38.90
2539;DHT22;1280;49.760;9.664;2023-06-04T14:21:30;24.50;39.20
2539;DHT22;1280;49.760;9.664;2023-06-04T14:24:00;24.40;39.10
2539;DHT22;1280;49.760;9.664;2023-06-04T14:26:28;24.50;39.20
2539;DHT22;1280;49.760;9.664;2023-06-04T14:28:56;24.50;39.20
2539;DHT22;1280;49.760;9.664;2023-06-04T14:31:24;24.50;39.10
2539;DHT22;1280;49.760;9.664;2023-06-04T14:33:59;24.60;38.90
2539;DHT22;1280;49.760;9.664;2023-06-04T14:36:26;24.70;38.80
2539;DHT22;1280;49.760;9.664;2023-06-04T14:38:54;24.70;39.00
2539;DHT22;1280;49.760;9.664;2023-06-04T14:41:24;24.70;39.00
2539;DHT22;1280;49.760;9.664;2023-06-04T14:43:53;24.70;39.00
2539;DHT22;1280;49.760;9.664;2023-06-04T14:46:22;24.80;39.10
2539;DHT22;1280;49.760;9.664;2023-06-04T14:48:50;24.80;39.20
2539;DHT22;1280;49.760;9.664;2023-06-04T14:51:20;24.90;39.30
2539;DHT22;1280;49.760;9.664;2023-06-04T14:53:49;24.90;39.50
2539;DHT22;1280;49.760;9.664;2023-06-04T14:56:17;25.00;39.80
2539;DHT22;1280;49.760;9.664;2023-06-04T14:58:46;25.00;39.70
2539;DHT22;1280;49.760;9.664;2023-06-04T15:01:14;25.00;39.40
2539;DHT22;1280;49.760;9.664;2023-06-04T15:03:43;25.00;39.40
2539;DHT22;1280;49.760;9.664;2023-06-04T15:06:11;25.00;39.40
2539;DHT22;1280;49.760;9.664;2023-06-04T15:08:45;25.00;39.40
2539;DHT22;1280;49.760;9.664;2023-06-04T15:11:14;25.10;39.40
2539;DHT22;1280;49.760;9.664;2023-06-04T15:13:42;25.10;39.50
2539;DHT22;1280;49.760;9.664;2023-06-04T15:16:12;25.00;39.90
2539;DHT22;1280;49.760;9.664;2023-06-04T15:18:40;25.00;40.10
2539;DHT22;1280;49.760;9.664;2023-06-04T15:21:08;25.00;40.00
2539;DHT22;1280;49.760;9.664;2023-06-04T15:23:36;25.10;39.90
2539;DHT22;1280;49.760;9.664;2023-06-04T15:26:05;25.10;39.90
2539;DHT22;1280;49.760;9.664;2023-06-04T15:28:33;25.10;39.90
2539;DHT22;1280;49.760;9.664;2023-06-04T15:31:01;25.10;40.00
2539;DHT22;1280;49.760;9.664;2023-06-04T15:33:31;25.10;40.10
2539;DHT22;1280;49.760;9.664;2023-06-04T15:35:59;25.20;40.00
2539;DHT22;1280;49.760;9.664;2023-06-04T15:38:27;25.20;40.00
2539;DHT22;1280;49.760;9.664;2023-06-04T15:40:57;25.20;40.20
2539;DHT22;1280;49.760;9.664;2023-06-04T15:43:25;25.20;40.40
2539;DHT22;1280;49.760;9.664;2023-06-04T15:45:53;25.30;40.30
2539;DHT22;1280;49.760;9.664;2023-06-04T15:48:21;25.30;40.20
2539;DHT22;1280;49.760;9.664;2023-06-04T15:50:51;25.30;40.50
2539;DHT22;1280;49.760;9.664;2023-06-04T15:53:19;25.30;40.20
2539;DHT22;1280;49.760;9.664;2023-06-04T15:55:49;25.30;40.30
2539;DHT22;1280;49.760;9.664;2023-06-04T15:58:17;25.30;40.00
2539;DHT22;1280;49.760;9.664;2023-06-04T16:00:45;25.30;39.70
2539;DHT22;1280;49.760;9.664;2023-06-04T16:03:13;25.40;39.60
2539;DHT22;1280;49.760;9.664;2023-06-04T16:05:41;25.40;39.60
2539;DHT22;1280;49.760;9.664;2023-06-04T16:08:10;25.30;39.60
2539;DHT22;1280;49.760;9.664;2023-06-04T16:10:38;25.40;39.60
2539;DHT22;1280;49.760;9.664;2023-06-04T16:13:07;25.40;39.50
2539;DHT22;1280;49.760;9.664;2023-06-04T16:15:35;25.30;39.50
2539;DHT22;1280;49.760;9.664;2023-06-04T16:18:04;25.30;39.50
2539;DHT22;1280;49.760;9.664;2023-06-04T16:20:32;25.30;39.40
2539;DHT22;1280;49.760;9.664;2023-06-04T16:23:00;25.30;39.50